KTTD/TTD METAR and TAF weather

Enter ICAO airport designator
Station Type Date Time Source
KTTD METAR 2022/10/01 08:53 UTC NOAA

KTTD 010853Z AUTO 00000KT 10SM CLR 13/11 A3001 RMK AO2 SLP163 T01280106 58004


Station Type Date Time Source
KTTD Decoded METAR 2022/10/01 08:53 UTC NOAA

PORTLAND-TROUTDALE AIRPORT, OR, United States (KTTD) 45-33N 122-25W 14M
Oct 01, 2022 - 04:53 AM EDT / 2022.10.01 0853 UTC
Wind: Calm:0
Visibility: 10 mile(s):0
Sky conditions: clear
Temperature: 55.0 F (12.8 C)
Dew Point: 51.1 F (10.6 C)
Relative Humidity: 86%
Pressure (altimeter): 30.01 in. Hg (1016 hPa)
Pressure tendency: 0.01 inches (0.4 hPa) lower than three hours ago
ob: KTTD 010853Z AUTO 00000KT 10SM CLR 13/11 A3001 RMK AO2 SLP163 T01280106 58004
cycle: 9

Station Type Date Time Source
KTTD TAF 2022/10/01 06:22 UTC NOAA

TAF KTTD 010520Z 0106/0206 08005KT P6SM SKC
FM011800 09013G25KT P6SM SKC
FM020000 08010KT P6SM SKC
FM020300 05005KT P6SM SKC

Example: see airport list